Springdale, Oregon
Current Conditions -  °F | °C
As of 12:53 AM on Wednesday 28 Jan 2015 (Local Time) from KTTD Reporting Station
Haze Haze  
Wind Chill: 50°   Ceiling: 700
Heat Index: 50°   Visibility: 5mi
Dew Point: 48°   Wind: 0mph
Humidity: 93%   Direction: NA
Pressure: 30.28"   Gusts: NA
Location:  45.5277°N, 122.373°W
Report Text: KTTD 280853Z AUTO 00000KT 5SM BR OVC007 10/09 A3028 RMK AO2 SLP253 60000 T01000089 51011
Loading
Personal Weather Stations






























Interactive Weather Map New forecast layout! Learn more

10-Day Weather Forecast

Advertisements
Track Severe Weather on mobile